createdAt,value
2022-12-11T00:00:28.601Z,10.77
2022-12-11T00:02:31.529Z,10.45
2022-12-11T00:04:34.352Z,11.27
2022-12-11T00:06:38.914Z,10.07
2022-12-11T00:08:41.662Z,9.38
2022-12-11T00:10:48.879Z,10.07
2022-12-11T00:12:57.525Z,8.95
2022-12-11T00:15:00.227Z,9.98
2022-12-11T00:17:03.011Z,9.75
2022-12-11T00:19:05.870Z,11.35
2022-12-11T00:21:11.945Z,10.07
2022-12-11T00:23:16.018Z,10.05
2022-12-11T00:25:18.818Z,10.68
2022-12-11T00:27:21.651Z,10.65
2022-12-11T00:29:24.317Z,11.00
2022-12-11T00:31:27.205Z,11.40
2022-12-11T00:33:30.068Z,11.48
2022-12-11T00:35:32.903Z,12.07
2022-12-11T00:37:35.805Z,11.73
2022-12-11T00:39:40.775Z,11.15
2022-12-11T00:41:43.454Z,11.07
2022-12-11T00:43:46.307Z,11.45
2022-12-11T00:45:49.037Z,11.65
2022-12-11T00:47:51.974Z,12.38
2022-12-11T00:49:54.682Z,12.57
2022-12-11T00:51:57.411Z,10.93
2022-12-11T00:54:00.381Z,9.90
2022-12-11T00:56:11.110Z,11.18
2022-12-11T00:58:14.146Z,10.60
2022-12-11T01:00:17.297Z,10.82
2022-12-11T01:02:20.061Z,12.38
2022-12-11T01:04:23.315Z,11.25
2022-12-11T01:06:28.423Z,11.52
2022-12-11T01:08:35.452Z,12.02
2022-12-11T01:10:40.129Z,11.85
2022-12-11T01:12:44.190Z,10.27
2022-12-11T01:14:46.932Z,11.82
2022-12-11T01:16:49.677Z,11.75
2022-12-11T01:18:52.455Z,11.20
2022-12-11T01:20:55.780Z,10.63
2022-12-11T01:23:02.087Z,9.40
2022-12-11T01:25:05.713Z,8.85
2022-12-11T01:27:08.634Z,9.55
2022-12-11T01:29:12.777Z,9.80
2022-12-11T01:31:17.713Z,10.55
2022-12-11T01:33:20.411Z,10.18
2022-12-11T01:35:23.216Z,10.18
2022-12-11T01:37:25.868Z,8.63
2022-12-11T01:39:28.723Z,8.95
2022-12-11T01:41:31.330Z,8.70
2022-12-11T01:43:34.001Z,8.90
2022-12-11T01:45:41.050Z,9.10
2022-12-11T01:47:43.706Z,9.43
2022-12-11T01:49:46.506Z,9.02
2022-12-11T01:51:52.437Z,9.80
2022-12-11T01:54:00.150Z,8.80
2022-12-11T01:56:04.757Z,8.68
2022-12-11T01:58:08.139Z,10.43
2022-12-11T02:00:12.331Z,10.68
2022-12-11T02:02:21.585Z,11.20
2022-12-11T02:04:25.520Z,9.05
2022-12-11T02:06:33.976Z,11.55
2022-12-11T02:08:36.773Z,10.35
2022-12-11T02:10:55.601Z,11.40
2022-12-11T02:13:02.613Z,11.27
2022-12-11T02:17:20.591Z,9.98
2022-12-11T02:19:45.415Z,9.45
2022-12-11T02:24:05.750Z,10.07
2022-12-11T02:26:23.055Z,10.90
2022-12-11T02:28:32.786Z,10.60
2022-12-11T02:30:38.131Z,11.90
2022-12-11T02:32:46.499Z,11.90
2022-12-11T02:34:57.363Z,11.02
2022-12-11T02:37:04.708Z,12.93
2022-12-11T02:39:10.128Z,10.60
2022-12-11T02:41:13.517Z,11.30
2022-12-11T02:43:18.601Z,11.88
2022-12-11T02:45:24.350Z,12.77
2022-12-11T02:47:29.458Z,13.10
2022-12-11T02:49:34.520Z,11.32
2022-12-11T02:51:40.909Z,12.18
2022-12-11T02:53:44.876Z,11.57
2022-12-11T02:55:51.356Z,10.68
2022-12-11T02:58:01.211Z,12.90
2022-12-11T03:00:05.150Z,11.25
2022-12-11T03:02:09.967Z,10.82
2022-12-11T03:04:12.785Z,11.77
2022-12-11T03:06:21.191Z,9.13
2022-12-11T03:08:23.953Z,10.45
2022-12-11T03:10:26.790Z,9.18
2022-12-11T03:12:32.806Z,9.45
2022-12-11T03:14:36.104Z,10.13
2022-12-11T03:16:40.700Z,10.02
2022-12-11T03:18:52.163Z,9.55
2022-12-11T03:21:03.150Z,10.05
2022-12-11T03:23:17.823Z,11.10
2022-12-11T03:25:24.299Z,9.80
2022-12-11T03:27:31.223Z,10.75
2022-12-11T03:29:40.638Z,8.80
2022-12-11T03:31:46.603Z,9.95
2022-12-11T03:33:54.677Z,10.43
2022-12-11T03:36:00.591Z,10.85
2022-12-11T03:38:07.408Z,9.70
2022-12-11T03:40:17.983Z,10.50
2022-12-11T03:42:22.875Z,9.90
2022-12-11T03:44:26.127Z,10.13
2022-12-11T03:46:32.556Z,9.35
2022-12-11T03:48:38.454Z,10.55
2022-12-11T03:50:43.612Z,8.05
2022-12-11T03:52:47.666Z,8.95
2022-12-11T03:54:52.566Z,10.55
2022-12-11T03:56:58.442Z,9.48
2022-12-11T03:59:01.279Z,8.57
2022-12-11T04:01:04.060Z,9.32
2022-12-11T04:03:16.484Z,9.45
2022-12-11T04:05:19.333Z,8.65
2022-12-11T04:07:23.750Z,10.52
2022-12-11T04:09:26.365Z,9.82
2022-12-11T04:11:38.230Z,11.27
2022-12-11T04:13:42.248Z,10.45
2022-12-11T04:15:43.952Z,9.75
2022-12-11T04:18:03.515Z,10.52
2022-12-11T04:20:33.500Z,9.48
2022-12-11T04:22:55.105Z,8.45
2022-12-11T04:24:57.829Z,9.52
2022-12-11T04:27:00.454Z,8.93
2022-12-11T04:29:03.519Z,9.80
2022-12-11T04:31:06.908Z,10.68
2022-12-11T04:33:09.626Z,9.02
2022-12-11T04:35:13.283Z,9.38
2022-12-11T04:37:16.152Z,10.77
2022-12-11T04:39:20.187Z,10.57
2022-12-11T04:41:23.013Z,7.88
2022-12-11T04:43:25.752Z,8.40
2022-12-11T04:45:28.395Z,8.60
2022-12-11T04:47:31.269Z,8.23
2022-12-11T04:49:33.909Z,9.75
2022-12-11T04:51:36.681Z,9.65
2022-12-11T04:53:39.632Z,9.93
2022-12-11T04:55:43.681Z,8.13
2022-12-11T04:57:46.288Z,8.77
2022-12-11T04:59:49.118Z,9.20
2022-12-11T05:01:51.811Z,8.68
2022-12-11T05:03:54.613Z,8.18
2022-12-11T05:05:57.233Z,9.25
2022-12-11T05:08:01.442Z,9.30
2022-12-11T05:10:04.515Z,9.30
2022-12-11T05:12:09.153Z,9.88
2022-12-11T05:14:11.765Z,8.60
2022-12-11T05:16:17.117Z,8.90
2022-12-11T05:18:19.859Z,7.70
2022-12-11T05:20:22.495Z,9.13
2022-12-11T05:22:25.221Z,8.40
2022-12-11T05:24:27.894Z,7.13
2022-12-11T05:26:30.618Z,8.50
2022-12-11T05:28:37.125Z,9.18
2022-12-11T05:30:39.761Z,8.18
2022-12-11T05:32:42.419Z,9.38
2022-12-11T05:34:45.155Z,7.97
2022-12-11T05:36:47.922Z,9.23
2022-12-11T05:38:51.057Z,9.88
2022-12-11T05:40:58.133Z,8.23
2022-12-11T05:45:05.348Z,9.07
2022-12-11T05:47:08.331Z,8.25
2022-12-11T05:49:11.622Z,10.63
2022-12-11T05:51:15.840Z,8.77
2022-12-11T05:53:18.692Z,9.38
2022-12-11T05:55:21.348Z,7.93
2022-12-11T05:57:24.047Z,8.57
2022-12-11T05:59:26.882Z,9.27
2022-12-11T06:01:33.410Z,8.43
2022-12-11T06:03:36.315Z,9.30
2022-12-11T06:05:39.372Z,9.60
2022-12-11T06:07:42.031Z,8.63
2022-12-11T06:09:44.852Z,9.15
2022-12-11T06:11:47.555Z,8.95
2022-12-11T06:13:50.306Z,7.90
2022-12-11T06:15:53.120Z,9.25
2022-12-11T06:17:57.116Z,8.38
2022-12-11T06:19:59.854Z,9.32
2022-12-11T06:22:02.560Z,8.50
2022-12-11T06:24:05.902Z,7.53
2022-12-11T06:26:09.351Z,7.43
2022-12-11T06:28:12.375Z,9.15
2022-12-11T06:30:16.485Z,8.27
2022-12-11T06:32:19.081Z,9.02
2022-12-11T06:34:23.352Z,9.38
2022-12-11T06:36:26.048Z,9.23
2022-12-11T06:38:28.714Z,8.35
2022-12-11T06:40:31.375Z,8.95
2022-12-11T06:42:37.054Z,8.40
2022-12-11T06:44:39.769Z,8.52
2022-12-11T06:46:42.421Z,7.90
2022-12-11T06:48:45.814Z,8.60
2022-12-11T06:50:49.930Z,9.13
2022-12-11T06:52:52.595Z,8.82
2022-12-11T06:54:55.724Z,8.75
2022-12-11T06:56:58.488Z,10.32
2022-12-11T06:59:06.977Z,9.10
2022-12-11T07:01:16.933Z,9.38
2022-12-11T07:03:19.671Z,9.13
2022-12-11T07:05:22.450Z,9.30
2022-12-11T07:07:26.486Z,9.77
2022-12-11T07:09:29.281Z,8.82
2022-12-11T07:11:32.053Z,8.52
2022-12-11T07:13:35.614Z,10.10
2022-12-11T07:15:40.480Z,9.90
2022-12-11T07:17:43.522Z,10.88
2022-12-11T07:19:46.199Z,8.75
2022-12-11T07:21:49.228Z,8.82
2022-12-11T07:23:53.288Z,8.43
2022-12-11T07:25:56.764Z,10.35
2022-12-11T07:27:59.419Z,9.35
2022-12-11T07:30:02.109Z,8.75
2022-12-11T07:32:05.463Z,10.18
2022-12-11T07:34:08.687Z,8.98
2022-12-11T07:36:13.121Z,9.57
2022-12-11T07:38:15.752Z,10.73
2022-12-11T07:40:19.931Z,9.40
2022-12-11T07:42:22.638Z,9.75
2022-12-11T07:44:25.478Z,8.65
2022-12-11T07:46:30.053Z,8.93
2022-12-11T07:48:33.113Z,8.10
2022-12-11T07:50:39.754Z,8.75
2022-12-11T07:54:45.404Z,7.90
2022-12-11T07:56:53.455Z,8.32
2022-12-11T07:58:56.873Z,8.10
2022-12-11T08:00:59.751Z,7.95
2022-12-11T08:03:02.474Z,9.73
2022-12-11T08:05:05.850Z,9.05
2022-12-11T08:07:08.466Z,9.95
2022-12-11T08:09:20.403Z,8.73
2022-12-11T08:11:24.700Z,8.93
2022-12-11T08:13:28.828Z,8.63
2022-12-11T08:15:31.507Z,9.38
2022-12-11T08:17:39.861Z,9.07
2022-12-11T08:19:42.877Z,7.90
2022-12-11T08:21:48.082Z,8.60
2022-12-11T08:23:52.140Z,8.60
2022-12-11T08:25:54.816Z,8.55
2022-12-11T08:27:57.549Z,8.27
2022-12-11T08:30:01.601Z,7.28
2022-12-11T08:32:10.501Z,6.60
2022-12-11T08:34:14.965Z,7.57
2022-12-11T08:36:19.491Z,7.15
2022-12-11T08:38:25.628Z,6.75
2022-12-11T08:40:28.562Z,9.70
2022-12-11T08:42:31.192Z,7.15
2022-12-11T08:44:33.880Z,8.32
2022-12-11T08:46:37.922Z,7.80
2022-12-11T08:48:41.879Z,7.88
2022-12-11T08:50:44.626Z,8.00
2022-12-11T08:52:47.333Z,7.53
2022-12-11T08:54:50.053Z,6.25
2022-12-11T08:56:57.827Z,5.97
2022-12-11T08:59:02.040Z,6.97
2022-12-11T09:01:07.611Z,7.28
2022-12-11T09:03:13.116Z,8.02
2022-12-11T09:05:16.098Z,7.43
2022-12-11T09:07:18.837Z,7.90
2022-12-11T09:09:21.635Z,8.05
2022-12-11T09:11:26.684Z,8.10
2022-12-11T09:13:29.553Z,8.15
2022-12-11T09:15:32.279Z,8.07
2022-12-11T09:17:35.378Z,7.95
2022-12-11T09:19:39.399Z,8.20
2022-12-11T09:21:43.556Z,8.15
2022-12-11T09:23:47.221Z,10.00
2022-12-11T09:25:50.038Z,8.38
2022-12-11T09:27:52.792Z,8.77
2022-12-11T09:29:55.499Z,10.68
2022-12-11T09:31:58.209Z,9.40
2022-12-11T09:34:03.001Z,8.80
2022-12-11T09:36:08.493Z,8.30
2022-12-11T09:38:11.313Z,8.55
2022-12-11T09:40:14.859Z,8.07
2022-12-11T09:42:22.212Z,7.78
2022-12-11T09:44:41.061Z,8.13
2022-12-11T09:48:49.122Z,8.30
2022-12-11T09:50:55.002Z,8.90
2022-12-11T09:53:09.357Z,7.35
2022-12-11T09:55:17.384Z,8.55
2022-12-11T09:57:30.882Z,10.10
2022-12-11T09:59:42.793Z,7.57
2022-12-11T10:01:53.034Z,9.73
2022-12-11T10:04:12.586Z,9.50
2022-12-11T10:06:22.093Z,9.07
2022-12-11T10:08:33.527Z,8.48
2022-12-11T10:10:42.531Z,9.82
2022-12-11T10:12:54.133Z,8.00
2022-12-11T10:15:20.680Z,9.30
2022-12-11T10:17:29.502Z,8.95
2022-12-11T10:19:33.659Z,7.57
2022-12-11T10:21:40.936Z,10.80
2022-12-11T10:23:52.003Z,10.00
2022-12-11T10:25:59.564Z,8.95
2022-12-11T10:28:13.189Z,9.10
2022-12-11T10:30:18.715Z,8.50
2022-12-11T10:32:25.574Z,8.48
2022-12-11T10:34:35.357Z,9.45
2022-12-11T10:36:40.402Z,9.25
2022-12-11T10:38:47.575Z,8.90
2022-12-11T10:40:52.052Z,9.15
2022-12-11T10:42:55.748Z,8.80
2022-12-11T10:45:01.548Z,9.23
2022-12-11T10:47:08.248Z,9.20
2022-12-11T10:49:22.902Z,9.10
2022-12-11T10:51:34.628Z,8.27
2022-12-11T10:53:37.493Z,9.25
2022-12-11T10:55:46.772Z,7.85
2022-12-11T10:57:56.865Z,10.25
2022-12-11T11:00:00.822Z,8.23
2022-12-11T11:02:05.044Z,8.20
2022-12-11T11:04:20.802Z,7.95
2022-12-11T11:06:24.757Z,8.18
2022-12-11T11:08:29.042Z,7.75
2022-12-11T11:10:32.165Z,8.00
2022-12-11T11:12:40.522Z,8.15
2022-12-11T11:14:43.134Z,8.07
2022-12-11T11:16:48.031Z,8.75
2022-12-11T11:18:54.899Z,8.13
2022-12-11T11:20:58.244Z,7.10
2022-12-11T11:23:03.776Z,9.52
2022-12-11T11:25:07.251Z,6.03
2022-12-11T11:27:15.517Z,6.65
2022-12-11T11:29:28.783Z,8.73
2022-12-11T11:31:38.053Z,8.55
2022-12-11T11:33:55.545Z,7.93
2022-12-11T11:36:02.538Z,7.60
2022-12-11T11:38:17.144Z,7.05
2022-12-11T11:40:25.832Z,9.38
2022-12-11T11:42:46.921Z,7.55
2022-12-11T11:45:04.292Z,7.57
2022-12-11T11:47:14.436Z,8.40
2022-12-11T11:49:24.056Z,9.23
2022-12-11T11:51:31.640Z,8.65
2022-12-11T11:53:40.549Z,8.20
2022-12-11T11:55:50.951Z,8.60
2022-12-11T11:57:58.216Z,9.85
2022-12-11T12:00:10.668Z,9.50
2022-12-11T12:02:16.348Z,9.10
2022-12-11T12:04:19.074Z,9.18
2022-12-11T12:06:35.282Z,9.43
2022-12-11T12:08:46.328Z,8.02
2022-12-11T12:10:56.027Z,8.40
2022-12-11T12:13:14.336Z,9.02
2022-12-11T12:15:37.875Z,8.45
2022-12-11T12:17:55.445Z,7.30
2022-12-11T12:20:10.445Z,7.75
2022-12-11T12:22:28.989Z,7.60
2022-12-11T12:24:41.655Z,6.35
2022-12-11T12:26:50.307Z,7.15
2022-12-11T12:29:03.139Z,7.32
2022-12-11T12:31:18.102Z,7.65
2022-12-11T12:33:32.075Z,7.88
2022-12-11T12:35:37.021Z,5.95
2022-12-11T12:37:49.967Z,8.13
2022-12-11T12:42:11.745Z,8.48
2022-12-11T12:44:16.470Z,8.10
2022-12-11T12:46:35.236Z,7.90
2022-12-11T12:48:37.923Z,8.60
2022-12-11T12:50:44.082Z,9.85
2022-12-11T12:52:47.533Z,8.23
2022-12-11T12:55:16.196Z,9.73
2022-12-11T12:57:19.676Z,8.73
2022-12-11T12:59:24.486Z,9.15
2022-12-11T13:01:31.391Z,9.85
2022-12-11T13:03:37.654Z,8.98
2022-12-11T13:05:43.104Z,9.18
2022-12-11T13:07:54.181Z,9.65
2022-12-11T13:10:00.731Z,9.80
2022-12-11T13:12:14.327Z,7.63
2022-12-11T13:14:28.762Z,8.77
2022-12-11T13:16:39.441Z,8.82
2022-12-11T13:18:43.470Z,8.50
2022-12-11T13:20:50.988Z,8.40
2022-12-11T13:23:19.393Z,9.05
2022-12-11T13:25:27.203Z,9.52
2022-12-11T13:27:39.174Z,8.57
2022-12-11T13:29:43.069Z,8.75
2022-12-11T13:31:58.716Z,8.65
2022-12-11T13:34:09.607Z,11.45
2022-12-11T13:36:32.575Z,10.18
2022-12-11T13:38:36.836Z,9.30
2022-12-11T13:40:42.689Z,9.27
2022-12-11T13:42:50.194Z,8.82
2022-12-11T13:44:53.095Z,8.52
2022-12-11T13:47:01.034Z,10.40
2022-12-11T13:49:06.739Z,8.93
2022-12-11T13:51:09.357Z,8.65
2022-12-11T13:53:17.032Z,9.20
2022-12-11T13:55:24.723Z,9.18
2022-12-11T13:57:29.185Z,9.85
2022-12-11T13:59:35.193Z,9.90
2022-12-11T14:01:37.910Z,10.00
2022-12-11T14:03:44.479Z,11.43
2022-12-11T14:05:47.255Z,11.77
2022-12-11T14:07:52.053Z,11.00
2022-12-11T14:10:02.262Z,12.63
2022-12-11T14:12:05.441Z,13.00
2022-12-11T14:14:21.604Z,10.68
2022-12-11T14:16:26.311Z,12.98
2022-12-11T14:18:34.117Z,11.05
2022-12-11T14:20:38.162Z,11.80
2022-12-11T14:22:40.825Z,12.88
2022-12-11T14:24:50.303Z,13.20
2022-12-11T14:26:54.477Z,12.80
2022-12-11T14:28:57.506Z,12.55
2022-12-11T14:31:02.547Z,13.35
2022-12-11T14:33:06.586Z,13.35
2022-12-11T14:35:22.589Z,14.95
2022-12-11T14:37:28.477Z,14.23
2022-12-11T14:39:36.102Z,15.88
2022-12-11T14:41:48.941Z,13.77
2022-12-11T14:43:55.295Z,14.05
2022-12-11T14:46:02.586Z,13.52
2022-12-11T14:48:09.507Z,15.70
2022-12-11T14:50:19.903Z,14.63
2022-12-11T14:52:25.404Z,14.57
2022-12-11T14:54:35.570Z,12.60
2022-12-11T14:56:38.450Z,13.98
2022-12-11T14:58:44.741Z,14.85
2022-12-11T15:00:58.588Z,14.38
2022-12-11T15:03:03.083Z,13.38
2022-12-11T15:05:18.038Z,14.35
2022-12-11T15:07:22.547Z,13.35
2022-12-11T15:09:28.250Z,14.05
2022-12-11T15:11:33.743Z,12.10
2022-12-11T15:13:40.112Z,15.02
2022-12-11T15:15:46.620Z,13.27
2022-12-11T15:17:52.968Z,14.80
2022-12-11T15:20:01.083Z,14.68
2022-12-11T15:22:06.602Z,13.55
2022-12-11T15:24:24.700Z,14.32
2022-12-11T15:26:37.103Z,13.80
2022-12-11T15:28:40.790Z,12.80
2022-12-11T15:30:43.539Z,12.48
2022-12-11T15:32:46.276Z,14.77
2022-12-11T15:34:50.299Z,14.63
2022-12-11T15:36:53.094Z,14.93
2022-12-11T15:38:55.845Z,15.10
2022-12-11T15:40:59.081Z,15.23
2022-12-11T15:43:03.775Z,14.82
2022-12-11T15:45:09.177Z,14.20
2022-12-11T15:47:15.605Z,15.25
2022-12-11T15:49:18.999Z,14.30
2022-12-11T15:51:22.880Z,14.43
2022-12-11T15:53:25.633Z,14.13
2022-12-11T15:55:34.255Z,14.98
2022-12-11T15:57:37.586Z,13.45
2022-12-11T15:59:41.674Z,13.75
2022-12-11T16:01:44.634Z,13.85
2022-12-11T16:03:47.443Z,14.57
2022-12-11T16:05:50.540Z,16.05
2022-12-11T16:07:54.535Z,15.05
2022-12-11T16:09:57.293Z,13.57
2022-12-11T16:11:59.978Z,12.30
2022-12-11T16:14:04.391Z,15.85
2022-12-11T16:16:09.091Z,13.73
2022-12-11T16:18:14.413Z,15.07
2022-12-11T16:20:17.124Z,13.32
2022-12-11T16:22:19.776Z,14.95
2022-12-11T16:24:22.587Z,14.07
2022-12-11T16:26:25.391Z,15.23
2022-12-11T16:28:28.097Z,15.23
2022-12-11T16:30:31.150Z,15.55
2022-12-11T16:32:35.410Z,15.32
2022-12-11T16:34:39.000Z,13.98
2022-12-11T16:36:41.749Z,15.35
2022-12-11T16:38:51.357Z,15.68
2022-12-11T16:41:01.133Z,16.63
2022-12-11T16:43:04.944Z,16.38
2022-12-11T16:45:11.570Z,15.23
2022-12-11T16:47:14.568Z,17.50
2022-12-11T16:49:18.862Z,16.30
2022-12-11T16:51:21.548Z,14.30
2022-12-11T16:53:24.871Z,15.35
2022-12-11T16:55:27.623Z,17.02
2022-12-11T16:57:30.271Z,14.93
2022-12-11T16:59:37.102Z,16.88
2022-12-11T17:01:40.831Z,16.25
2022-12-11T17:03:44.461Z,16.60
2022-12-11T17:05:48.478Z,17.60
2022-12-11T17:07:51.253Z,17.02
2022-12-11T17:09:53.964Z,16.45
2022-12-11T17:11:56.696Z,14.77
2022-12-11T17:14:01.225Z,16.02
2022-12-11T17:16:06.274Z,16.15
2022-12-11T17:18:09.612Z,16.38
2022-12-11T17:20:12.514Z,16.83
2022-12-11T17:22:16.573Z,16.52
2022-12-11T17:24:19.341Z,15.63
2022-12-11T17:26:22.136Z,16.20
2022-12-11T17:28:24.806Z,16.73
2022-12-11T17:30:27.460Z,16.73
2022-12-11T17:32:30.076Z,15.65
2022-12-11T17:34:37.890Z,16.23
2022-12-11T17:36:41.147Z,16.58
2022-12-11T17:38:45.497Z,17.60
2022-12-11T17:40:48.439Z,17.02
2022-12-11T17:42:51.139Z,16.65
2022-12-11T17:44:53.910Z,18.00
2022-12-11T17:46:56.568Z,17.65
2022-12-11T17:49:00.165Z,17.25
2022-12-11T17:51:05.111Z,16.65
2022-12-11T17:53:08.171Z,18.20
2022-12-11T17:55:12.660Z,16.88
2022-12-11T17:57:15.723Z,17.95
2022-12-11T17:59:18.758Z,18.05
2022-12-11T18:01:21.570Z,18.40
2022-12-11T18:03:24.801Z,18.48
2022-12-11T18:05:27.539Z,19.63
2022-12-11T18:07:30.182Z,17.23
2022-12-11T18:09:32.857Z,22.08
2022-12-11T18:11:36.904Z,18.92
2022-12-11T18:13:39.747Z,17.90
2022-12-11T18:15:42.713Z,17.00
2022-12-11T18:17:45.681Z,18.83
2022-12-11T18:19:48.386Z,19.58
2022-12-11T18:21:51.194Z,18.67
2022-12-11T18:23:54.080Z,18.65
2022-12-11T18:25:56.748Z,17.10
2022-12-11T18:28:00.778Z,17.73
2022-12-11T18:30:03.788Z,16.58
2022-12-11T18:32:06.850Z,18.50
2022-12-11T18:34:09.627Z,18.67
2022-12-11T18:36:14.345Z,18.77
2022-12-11T18:38:17.039Z,17.92
2022-12-11T18:40:19.851Z,16.77
2022-12-11T18:42:37.697Z,15.95
2022-12-11T18:44:43.133Z,16.55
2022-12-11T18:46:45.866Z,18.17
2022-12-11T18:48:49.328Z,18.42
2022-12-11T18:50:52.819Z,17.58
2022-12-11T18:52:57.033Z,17.65
2022-12-11T18:54:59.738Z,17.77
2022-12-11T18:57:02.408Z,17.02
2022-12-11T18:59:05.187Z,17.80
2022-12-11T19:01:11.181Z,17.58
2022-12-11T19:03:14.633Z,19.42
2022-12-11T19:05:17.388Z,17.17
2022-12-11T19:07:20.052Z,18.40
2022-12-11T19:09:23.250Z,17.95
2022-12-11T19:11:27.753Z,18.30
2022-12-11T19:13:30.495Z,16.80
2022-12-11T19:15:33.134Z,15.90
2022-12-11T19:17:37.646Z,14.25
2022-12-11T19:19:40.600Z,16.70
2022-12-11T19:21:44.500Z,16.30
2022-12-11T19:23:47.587Z,15.18
2022-12-11T19:25:50.966Z,17.38
2022-12-11T19:27:56.812Z,17.40
2022-12-11T19:29:59.890Z,16.55
2022-12-11T19:32:03.285Z,14.18
2022-12-11T19:34:07.269Z,16.08
2022-12-11T19:36:12.991Z,16.27
2022-12-11T19:38:15.821Z,17.95
2022-12-11T19:40:20.587Z,15.55
2022-12-11T19:42:23.338Z,15.95
2022-12-11T19:44:26.183Z,15.68
2022-12-11T19:46:29.848Z,16.45
2022-12-11T19:48:34.900Z,16.20
2022-12-11T19:50:39.000Z,15.95
2022-12-11T19:52:46.146Z,14.82
2022-12-11T19:54:49.291Z,14.68
2022-12-11T19:56:51.917Z,14.07
2022-12-11T19:58:54.641Z,14.88
2022-12-11T20:00:57.490Z,17.08
2022-12-11T20:03:00.300Z,15.48
2022-12-11T20:05:03.101Z,18.08
2022-12-11T20:07:07.128Z,19.55
2022-12-11T20:09:12.024Z,19.70
2022-12-11T20:11:18.736Z,18.92
2022-12-11T20:13:22.902Z,19.83
2022-12-11T20:15:26.338Z,18.92
2022-12-11T20:17:29.117Z,18.95
2022-12-11T20:19:31.995Z,18.38
2022-12-11T20:21:35.347Z,20.13
2022-12-11T20:23:39.686Z,20.23
2022-12-11T20:25:42.404Z,20.80
2022-12-11T20:27:45.139Z,20.13
2022-12-11T20:29:47.837Z,21.02
2022-12-11T20:31:51.062Z,18.85
2022-12-11T20:33:54.695Z,19.83
2022-12-11T20:35:57.312Z,19.70
2022-12-11T20:37:59.977Z,19.40
2022-12-11T20:40:05.167Z,18.30
2022-12-11T20:42:10.218Z,19.20
2022-12-11T20:44:12.970Z,18.98
2022-12-11T20:46:16.722Z,19.40
2022-12-11T20:48:19.431Z,19.50
2022-12-11T20:50:22.135Z,19.00
2022-12-11T20:52:25.021Z,19.92
2022-12-11T20:54:28.096Z,20.45
2022-12-11T20:56:32.640Z,19.75
2022-12-11T20:58:36.062Z,17.92
2022-12-11T21:00:40.228Z,17.35
2022-12-11T21:02:42.898Z,16.98
2022-12-11T21:04:45.625Z,19.63
2022-12-11T21:06:55.061Z,19.42
2022-12-11T21:08:58.505Z,19.75
2022-12-11T21:11:01.176Z,18.92
2022-12-11T21:13:05.159Z,17.25
2022-12-11T21:15:08.834Z,18.42
2022-12-11T21:17:11.609Z,17.40
2022-12-11T21:19:17.126Z,19.67
2022-12-11T21:21:19.963Z,19.23
2022-12-11T21:23:22.657Z,19.83
2022-12-11T21:25:25.450Z,21.45
2022-12-11T21:27:28.117Z,20.25
2022-12-11T21:29:32.244Z,20.65
2022-12-11T21:31:34.878Z,19.45
2022-12-11T21:33:37.553Z,18.20
2022-12-11T21:35:40.356Z,19.23
2022-12-11T21:37:43.062Z,18.33
2022-12-11T21:39:45.721Z,20.40
2022-12-11T21:41:48.553Z,16.73
2022-12-11T21:44:56.647Z,19.33
2022-12-11T21:48:20.871Z,16.80
2022-12-11T21:50:23.609Z,15.13
2022-12-11T21:52:26.206Z,17.33
2022-12-11T21:54:28.884Z,17.17
2022-12-11T21:56:32.266Z,15.18
2022-12-11T21:58:34.879Z,16.88
2022-12-11T22:00:38.032Z,17.52
2022-12-11T22:02:42.189Z,17.95
2022-12-11T22:04:47.401Z,17.27
2022-12-11T22:06:50.023Z,18.75
2022-12-11T22:08:52.657Z,17.08
2022-12-11T22:10:56.577Z,16.25
2022-12-11T22:12:59.265Z,16.05
2022-12-11T22:15:01.988Z,15.77
2022-12-11T22:17:04.696Z,17.25
2022-12-11T22:19:08.731Z,16.48
2022-12-11T22:21:11.802Z,15.40
2022-12-11T22:23:14.956Z,15.32
2022-12-11T22:25:17.929Z,16.00
2022-12-11T22:27:23.857Z,14.95
2022-12-11T22:29:26.914Z,16.02
2022-12-11T22:31:29.596Z,16.17
2022-12-11T22:33:32.256Z,16.50
2022-12-11T22:35:36.658Z,17.67
2022-12-11T22:37:39.385Z,15.05
2022-12-11T22:39:42.098Z,16.90
2022-12-11T22:41:44.741Z,17.02
2022-12-11T22:43:47.493Z,16.83
2022-12-11T22:45:50.347Z,17.38
2022-12-11T22:47:53.133Z,16.30
2022-12-11T22:49:55.957Z,16.90
2022-12-11T22:52:00.049Z,15.95
2022-12-11T22:54:02.804Z,16.83
2022-12-11T22:56:06.642Z,17.63
2022-12-11T22:58:09.281Z,16.90
2022-12-11T23:00:14.014Z,14.75
2022-12-11T23:02:17.220Z,15.70
2022-12-11T23:04:20.015Z,17.55
2022-12-11T23:06:25.864Z,16.65
2022-12-11T23:08:30.158Z,16.15
2022-12-11T23:10:32.939Z,16.88
2022-12-11T23:12:36.153Z,15.90
2022-12-11T23:14:39.145Z,15.98
2022-12-11T23:16:42.079Z,16.73
2022-12-11T23:18:44.884Z,16.60
2022-12-11T23:20:49.951Z,16.75
2022-12-11T23:22:52.669Z,17.75
2022-12-11T23:24:56.838Z,15.85
2022-12-11T23:27:00.406Z,15.82
2022-12-11T23:29:04.795Z,17.55
2022-12-11T23:31:07.772Z,15.25
2022-12-11T23:33:10.457Z,14.23
2022-12-11T23:35:13.455Z,14.35
2022-12-11T23:37:16.491Z,14.23
2022-12-11T23:39:19.207Z,13.63
2022-12-11T23:41:23.904Z,13.38
2022-12-11T23:43:26.646Z,14.30
2022-12-11T23:45:29.365Z,14.27
2022-12-11T23:47:32.014Z,14.10
2022-12-11T23:49:34.765Z,14.93
2022-12-11T23:51:37.528Z,15.00
2022-12-11T23:53:40.273Z,12.52
2022-12-11T23:55:45.654Z,14.23
2022-12-11T23:57:49.674Z,12.98
2022-12-11T23:59:52.342Z,13.45
